createdAt,value
2023-04-18T00:00:06.424Z,49.98
2023-04-18T00:03:00.211Z,49.26
2023-04-18T00:05:29.045Z,49.23
2023-04-18T00:07:56.092Z,49.05
2023-04-18T00:10:23.179Z,48.88
2023-04-18T00:12:50.928Z,48.60
2023-04-18T00:15:18.086Z,48.58
2023-04-18T00:17:45.157Z,48.42
2023-04-18T00:20:12.480Z,47.98
2023-04-18T00:22:41.867Z,47.25
2023-04-18T00:25:09.919Z,47.35
2023-04-18T00:27:37.669Z,47.13
2023-04-18T00:30:08.065Z,47.43
2023-04-18T00:32:37.708Z,47.87
2023-04-18T00:35:04.898Z,48.30
2023-04-18T00:37:31.823Z,48.52
2023-04-18T00:39:58.622Z,48.37
2023-04-18T00:42:27.379Z,48.31
2023-04-18T00:44:54.302Z,48.17
2023-04-18T00:47:21.336Z,48.20
2023-04-18T00:49:49.091Z,48.55
2023-04-18T00:52:18.085Z,48.33
2023-04-18T00:54:44.913Z,48.23
2023-04-18T00:57:12.002Z,48.44
2023-04-18T00:59:38.862Z,47.72
2023-04-18T01:02:07.927Z,47.74
2023-04-18T01:04:35.292Z,47.77
2023-04-18T01:07:02.974Z,47.83
2023-04-18T01:09:30.434Z,47.57
2023-04-18T01:11:57.381Z,48.29
2023-04-18T01:14:24.429Z,48.49
2023-04-18T01:16:51.478Z,48.70
2023-04-18T01:19:19.208Z,48.99
2023-04-18T01:21:46.924Z,49.18
2023-04-18T01:24:15.186Z,49.16
2023-04-18T01:26:43.575Z,48.51
2023-04-18T01:29:10.854Z,48.72
2023-04-18T01:31:38.345Z,48.93
2023-04-18T01:34:05.893Z,49.28
2023-04-18T01:36:33.367Z,49.87
2023-04-18T01:39:00.691Z,49.85
2023-04-18T01:41:31.864Z,49.88
2023-04-18T01:43:58.998Z,50.25
2023-04-18T01:46:26.537Z,50.30
2023-04-18T01:48:54.879Z,51.18
2023-04-18T01:51:22.101Z,51.44
2023-04-18T01:53:49.264Z,51.16
2023-04-18T01:56:16.412Z,50.99
2023-04-18T01:58:43.466Z,51.03
2023-04-18T02:01:10.614Z,51.15
2023-04-18T02:03:38.988Z,50.98
2023-04-18T02:06:06.580Z,50.95
2023-04-18T02:08:35.256Z,51.26
2023-04-18T02:11:04.780Z,51.01
2023-04-18T02:13:32.142Z,50.80
2023-04-18T02:15:59.276Z,50.63
2023-04-18T02:18:26.557Z,50.46
2023-04-18T02:20:53.617Z,51.06
2023-04-18T02:23:21.820Z,51.17
2023-04-18T02:25:48.879Z,51.34
2023-04-18T02:28:17.543Z,51.72
2023-04-18T02:30:44.989Z,52.10
2023-04-18T02:33:12.508Z,52.37
2023-04-18T02:35:40.214Z,52.86
2023-04-18T02:38:07.243Z,52.90
2023-04-18T02:40:34.156Z,52.94
2023-04-18T02:43:02.087Z,53.10
2023-04-18T02:45:29.038Z,53.18
2023-04-18T02:47:57.834Z,53.36
2023-04-18T02:50:24.938Z,53.28
2023-04-18T02:52:52.774Z,53.16
2023-04-18T02:55:21.476Z,53.25
2023-04-18T02:57:48.602Z,52.70
2023-04-18T03:00:38.785Z,52.99
2023-04-18T03:03:24.668Z,52.86
2023-04-18T03:06:07.272Z,52.86
2023-04-18T03:08:34.525Z,53.28
2023-04-18T03:11:01.522Z,53.53
2023-04-18T03:13:29.166Z,53.65
2023-04-18T03:15:56.175Z,53.56
2023-04-18T03:18:23.205Z,53.23
2023-04-18T03:20:50.922Z,52.84
2023-04-18T03:23:17.976Z,53.09
2023-04-18T03:25:45.737Z,53.56
2023-04-18T03:28:12.793Z,53.82
2023-04-18T03:30:39.950Z,54.20
2023-04-18T03:33:07.411Z,54.22
2023-04-18T03:35:34.977Z,54.04
2023-04-18T03:38:02.228Z,53.90
2023-04-18T03:40:31.059Z,54.26
2023-04-18T03:43:02.494Z,54.62
2023-04-18T03:45:29.737Z,54.58
2023-04-18T03:47:56.741Z,54.55
2023-04-18T03:50:25.286Z,54.52
2023-04-18T03:52:53.152Z,54.34
2023-04-18T03:55:20.313Z,54.11
2023-04-18T03:57:47.668Z,54.36
2023-04-18T04:00:20.350Z,54.78
2023-04-18T04:02:58.462Z,54.98
2023-04-18T04:05:25.508Z,54.16
2023-04-18T04:07:52.537Z,54.43
2023-04-18T04:10:20.024Z,54.10
2023-04-18T04:12:47.797Z,53.91
2023-04-18T04:15:14.784Z,53.71
2023-04-18T04:17:46.950Z,54.03
2023-04-18T04:20:14.488Z,54.16
2023-04-18T04:22:42.355Z,54.40
2023-04-18T04:25:10.025Z,54.43
2023-04-18T04:27:39.067Z,54.48
2023-04-18T04:30:08.328Z,54.75
2023-04-18T04:32:36.012Z,54.76
2023-04-18T04:35:04.066Z,54.95
2023-04-18T04:37:33.064Z,54.75
2023-04-18T04:40:08.812Z,54.92
2023-04-18T04:43:12.017Z,54.66
2023-04-18T04:45:44.080Z,54.33
2023-04-18T04:48:11.218Z,54.19
2023-04-18T04:50:40.613Z,54.52
2023-04-18T04:53:08.189Z,54.47
2023-04-18T04:55:35.555Z,54.32
2023-04-18T04:58:02.815Z,54.09
2023-04-18T05:00:38.246Z,53.36
2023-04-18T05:03:06.637Z,52.81
2023-04-18T05:05:33.890Z,52.55
2023-04-18T05:08:00.998Z,52.40
2023-04-18T05:10:27.846Z,52.02
2023-04-18T05:12:54.949Z,51.92
2023-04-18T05:15:22.785Z,51.33
2023-04-18T05:17:49.732Z,51.14
2023-04-18T05:20:16.795Z,51.00
2023-04-18T05:22:43.719Z,51.43
2023-04-18T05:25:11.799Z,51.83
2023-04-18T05:27:38.762Z,51.54
2023-04-18T05:30:06.304Z,51.11
2023-04-18T05:32:33.259Z,50.71
2023-04-18T05:35:00.145Z,50.84
2023-04-18T05:37:27.108Z,50.65
2023-04-18T05:39:53.957Z,50.29
2023-04-18T05:42:20.760Z,50.40
2023-04-18T05:44:47.709Z,50.09
2023-04-18T05:47:14.561Z,49.83
2023-04-18T05:49:41.416Z,49.50
2023-04-18T05:52:08.399Z,49.19
2023-04-18T05:54:35.298Z,48.72
2023-04-18T05:57:04.243Z,47.96
2023-04-18T05:59:31.546Z,47.95
2023-04-18T06:01:58.392Z,48.48
2023-04-18T06:04:25.443Z,48.41
2023-04-18T06:06:52.462Z,47.74
2023-04-18T06:09:19.506Z,47.01
2023-04-18T06:11:46.401Z,47.10
2023-04-18T06:14:13.628Z,47.16
2023-04-18T06:16:40.967Z,46.64
2023-04-18T06:19:07.933Z,46.52
2023-04-18T06:21:34.888Z,46.19
2023-04-18T06:24:01.944Z,45.35
2023-04-18T06:26:31.557Z,44.08
2023-04-18T06:28:58.507Z,44.39
2023-04-18T06:31:25.628Z,44.57
2023-04-18T06:33:52.825Z,44.69
2023-04-18T06:36:19.894Z,44.79
2023-04-18T06:38:46.820Z,44.39
2023-04-18T06:41:14.395Z,43.56
2023-04-18T06:43:49.134Z,42.47
2023-04-18T06:46:26.752Z,41.91
2023-04-18T06:48:53.968Z,41.45
2023-04-18T06:51:20.921Z,40.88
2023-04-18T06:53:48.070Z,41.46
2023-04-18T06:56:15.331Z,40.94
2023-04-18T06:58:42.282Z,40.99
2023-04-18T07:01:09.382Z,40.64
2023-04-18T07:03:36.475Z,40.80
2023-04-18T07:06:04.667Z,40.76
2023-04-18T07:08:32.845Z,40.22
2023-04-18T07:10:59.797Z,40.10
2023-04-18T07:13:26.853Z,39.68
2023-04-18T07:15:54.111Z,38.92
2023-04-18T07:18:34.192Z,39.34
2023-04-18T07:21:08.372Z,39.43
2023-04-18T07:23:35.539Z,39.20
2023-04-18T07:26:02.993Z,39.68
2023-04-18T07:28:30.521Z,39.18
2023-04-18T07:30:58.084Z,39.45
2023-04-18T07:33:25.115Z,39.60
2023-04-18T07:35:52.569Z,39.62
2023-04-18T07:38:19.668Z,39.80
2023-04-18T07:40:46.638Z,39.61
2023-04-18T07:43:13.634Z,39.72
2023-04-18T07:45:42.648Z,39.41
2023-04-18T07:48:10.655Z,37.75
2023-04-18T07:50:37.507Z,37.39
2023-04-18T07:53:04.661Z,37.47
2023-04-18T07:55:31.608Z,36.21
2023-04-18T07:57:58.439Z,37.06
2023-04-18T08:00:25.881Z,35.87
2023-04-18T08:02:52.924Z,35.67
2023-04-18T08:05:20.360Z,36.58
2023-04-18T08:07:47.209Z,35.60
2023-04-18T08:10:14.161Z,36.09
2023-04-18T08:12:41.675Z,36.78
2023-04-18T08:15:08.656Z,37.33
2023-04-18T08:17:36.042Z,37.51
2023-04-18T08:20:06.726Z,37.17
2023-04-18T08:22:33.637Z,36.87
2023-04-18T08:25:04.832Z,35.86
2023-04-18T08:27:32.716Z,35.43
2023-04-18T08:30:00.045Z,34.41
2023-04-18T08:32:26.931Z,34.68
2023-04-18T08:34:53.898Z,35.14
2023-04-18T08:37:20.748Z,35.05
2023-04-18T08:39:47.795Z,34.84
2023-04-18T08:42:33.776Z,33.88
2023-04-18T08:45:00.947Z,32.85
2023-04-18T08:47:31.230Z,31.75
2023-04-18T08:49:58.191Z,32.42
2023-04-18T08:52:49.047Z,33.45
2023-04-18T08:55:16.348Z,32.62
2023-04-18T08:58:01.638Z,31.93
2023-04-18T09:00:51.657Z,32.03
2023-04-18T09:03:39.230Z,30.23
2023-04-18T09:06:13.436Z,31.71
2023-04-18T09:08:58.773Z,30.73
2023-04-18T09:11:28.234Z,28.54
2023-04-18T09:13:55.972Z,29.63
2023-04-18T09:16:23.115Z,28.63
2023-04-18T09:19:13.594Z,29.77
2023-04-18T09:21:42.131Z,30.82
2023-04-18T09:24:20.336Z,29.88
2023-04-18T09:26:49.427Z,29.98
2023-04-18T09:29:17.946Z,30.78
2023-04-18T09:31:55.551Z,29.95
2023-04-18T09:34:25.924Z,28.21
2023-04-18T09:37:07.292Z,27.00
2023-04-18T09:39:34.394Z,27.46
2023-04-18T09:42:02.040Z,27.17
2023-04-18T09:44:29.059Z,25.67
2023-04-18T09:46:56.061Z,27.12
2023-04-18T09:49:23.310Z,25.63
2023-04-18T09:51:51.748Z,25.24
2023-04-18T09:54:20.281Z,26.06
2023-04-18T09:56:50.027Z,25.87
2023-04-18T09:59:35.874Z,26.52
2023-04-18T10:02:07.510Z,24.41
2023-04-18T10:04:35.269Z,25.00
2023-04-18T10:07:02.940Z,25.06
2023-04-18T10:09:32.720Z,24.70
2023-04-18T10:12:02.105Z,24.83
2023-04-18T10:14:31.001Z,24.50
2023-04-18T10:16:58.959Z,25.31
2023-04-18T10:19:27.273Z,24.51
2023-04-18T10:21:55.526Z,24.64
2023-04-18T10:24:41.116Z,23.37
2023-04-18T10:27:08.454Z,22.86
2023-04-18T10:29:49.633Z,24.61
2023-04-18T10:32:18.219Z,22.92
2023-04-18T10:34:48.868Z,22.68
2023-04-18T10:37:17.254Z,22.80
2023-04-18T10:39:53.296Z,23.43
2023-04-18T10:42:40.203Z,23.71
2023-04-18T10:45:23.432Z,23.58
2023-04-18T10:47:50.547Z,23.16
2023-04-18T10:50:17.749Z,22.94
2023-04-18T10:52:44.995Z,22.98
2023-04-18T10:55:16.779Z,22.39
2023-04-18T10:57:45.351Z,22.92
2023-04-18T11:00:14.263Z,22.09
2023-04-18T11:02:47.949Z,22.57
2023-04-18T11:05:18.898Z,22.33
2023-04-18T11:07:47.951Z,23.33
2023-04-18T11:10:19.674Z,24.74
2023-04-18T11:12:47.112Z,25.40
2023-04-18T11:15:17.236Z,25.90
2023-04-18T11:17:44.472Z,24.41
2023-04-18T11:20:14.217Z,26.76
2023-04-18T11:22:48.727Z,25.72
2023-04-18T11:25:16.461Z,24.19
2023-04-18T11:27:44.576Z,23.75
2023-04-18T11:30:12.347Z,24.42
2023-04-18T11:32:39.396Z,23.25
2023-04-18T11:35:13.207Z,24.86
2023-04-18T11:37:41.072Z,23.64
2023-04-18T11:40:11.809Z,24.39
2023-04-18T11:42:39.292Z,23.53
2023-04-18T11:45:13.764Z,23.60
2023-04-18T11:47:42.226Z,23.55
2023-04-18T11:50:10.856Z,23.61
2023-04-18T11:52:38.871Z,24.74
2023-04-18T11:55:20.746Z,23.96
2023-04-18T11:57:53.582Z,24.03
2023-04-18T12:00:30.484Z,23.88
2023-04-18T12:02:58.696Z,23.48
2023-04-18T12:05:27.149Z,23.43
2023-04-18T12:07:55.118Z,24.18
2023-04-18T12:10:21.979Z,23.44
2023-04-18T12:12:49.802Z,24.42
2023-04-18T12:15:17.244Z,23.82
2023-04-18T12:17:44.762Z,23.60
2023-04-18T12:20:12.802Z,23.81
2023-04-18T12:22:49.654Z,23.64
2023-04-18T12:25:22.822Z,22.79
2023-04-18T12:27:57.303Z,24.11
2023-04-18T12:30:36.799Z,24.73
2023-04-18T12:33:04.655Z,23.34
2023-04-18T12:35:31.757Z,24.10
2023-04-18T12:37:59.779Z,24.73
2023-04-18T12:40:27.200Z,25.53
2023-04-18T12:42:54.861Z,24.72
2023-04-18T12:45:22.410Z,25.30
2023-04-18T12:47:50.298Z,24.92
2023-04-18T12:50:18.249Z,25.55
2023-04-18T12:52:45.247Z,25.38
2023-04-18T12:55:12.530Z,25.37
2023-04-18T12:57:40.770Z,25.68
2023-04-18T13:00:12.435Z,25.55
2023-04-18T13:02:40.611Z,26.17
2023-04-18T13:05:08.430Z,25.31
2023-04-18T13:07:37.260Z,25.56
2023-04-18T13:10:04.409Z,25.80
2023-04-18T13:12:31.234Z,24.41
2023-04-18T13:14:58.151Z,24.51
2023-04-18T13:17:25.489Z,24.92
2023-04-18T13:19:52.465Z,25.41
2023-04-18T13:22:19.978Z,25.18
2023-04-18T13:24:47.346Z,25.43
2023-04-18T13:27:14.350Z,26.11
2023-04-18T13:29:42.112Z,24.68
2023-04-18T13:32:09.268Z,25.12
2023-04-18T13:34:39.155Z,24.75
2023-04-18T13:37:06.133Z,24.99
2023-04-18T13:39:33.362Z,25.38
2023-04-18T13:42:02.731Z,25.40
2023-04-18T13:44:30.352Z,25.76
2023-04-18T13:46:57.437Z,24.83
2023-04-18T13:49:24.272Z,24.84
2023-04-18T13:51:52.972Z,24.63
2023-04-18T13:54:20.125Z,25.63
2023-04-18T13:56:46.988Z,24.89
2023-04-18T13:59:14.149Z,24.23
2023-04-18T14:01:41.919Z,23.55
2023-04-18T14:04:09.061Z,23.89
2023-04-18T14:06:36.066Z,24.20
2023-04-18T14:09:03.305Z,23.96
2023-04-18T14:11:30.170Z,24.79
2023-04-18T14:13:57.109Z,25.71
2023-04-18T14:16:24.035Z,25.61
2023-04-18T14:18:51.060Z,25.81
2023-04-18T14:21:17.939Z,26.23
2023-04-18T14:23:44.720Z,26.79
2023-04-18T14:26:11.594Z,26.30
2023-04-18T14:28:38.526Z,26.48
2023-04-18T14:31:06.087Z,26.22
2023-04-18T14:33:35.669Z,25.70
2023-04-18T14:36:02.716Z,26.14
2023-04-18T14:38:29.661Z,26.91
2023-04-18T14:40:56.994Z,26.89
2023-04-18T14:43:24.210Z,26.61
2023-04-18T14:45:51.453Z,25.66
2023-04-18T14:48:18.458Z,26.35
2023-04-18T14:50:45.266Z,25.90
2023-04-18T14:53:12.185Z,26.31
2023-04-18T14:55:39.049Z,27.06
2023-04-18T14:58:05.917Z,26.88
2023-04-18T15:00:32.886Z,26.60
2023-04-18T15:03:00.291Z,27.21
2023-04-18T15:05:27.406Z,27.46
2023-04-18T15:07:55.549Z,27.63
2023-04-18T15:10:22.474Z,28.04
2023-04-18T15:12:50.597Z,28.42
2023-04-18T15:15:18.368Z,28.21
2023-04-18T15:17:45.288Z,27.95
2023-04-18T15:20:12.536Z,28.30
2023-04-18T15:22:39.419Z,28.96
2023-04-18T15:25:06.850Z,29.04
2023-04-18T15:27:33.707Z,29.68
2023-04-18T15:30:01.841Z,29.89
2023-04-18T15:32:28.719Z,29.62
2023-04-18T15:34:55.927Z,29.46
2023-04-18T15:37:23.184Z,29.77
2023-04-18T15:39:50.062Z,29.90
2023-04-18T15:42:16.965Z,30.02
2023-04-18T15:44:43.915Z,30.74
2023-04-18T15:47:10.754Z,30.63
2023-04-18T15:49:37.570Z,30.88
2023-04-18T15:52:05.888Z,30.79
2023-04-18T15:54:32.793Z,30.96
2023-04-18T15:56:59.719Z,30.98
2023-04-18T15:59:26.523Z,31.16
2023-04-18T16:01:53.477Z,31.55
2023-04-18T16:04:20.678Z,31.49
2023-04-18T16:06:47.537Z,31.99
2023-04-18T16:09:15.656Z,32.21
2023-04-18T16:11:42.673Z,32.52
2023-04-18T16:14:09.509Z,32.73
2023-04-18T16:16:36.533Z,33.06
2023-04-18T16:19:04.881Z,33.36
2023-04-18T16:21:32.092Z,33.69
2023-04-18T16:23:59.312Z,34.03
2023-04-18T16:26:26.195Z,34.15
2023-04-18T16:28:53.095Z,34.38
2023-04-18T16:31:20.167Z,35.08
2023-04-18T16:33:47.145Z,35.20
2023-04-18T16:36:14.087Z,35.69
2023-04-18T16:38:40.946Z,35.73
2023-04-18T16:41:07.896Z,36.11
2023-04-18T16:43:37.524Z,36.44
2023-04-18T16:46:04.576Z,36.73
2023-04-18T16:48:31.577Z,36.96
2023-04-18T16:50:58.599Z,37.36
2023-04-18T16:53:25.549Z,37.92
2023-04-18T16:55:55.281Z,37.91
2023-04-18T16:58:22.987Z,38.45
2023-04-18T17:00:49.960Z,38.45
2023-04-18T17:03:16.993Z,38.63
2023-04-18T17:05:44.074Z,38.84
2023-04-18T17:08:10.922Z,39.02
2023-04-18T17:10:37.737Z,39.29
2023-04-18T17:13:04.554Z,39.81
2023-04-18T17:15:31.576Z,39.82
2023-04-18T17:18:00.627Z,40.25
2023-04-18T17:20:27.853Z,40.11
2023-04-18T17:22:54.883Z,40.41
2023-04-18T17:25:21.882Z,40.58
2023-04-18T17:27:48.776Z,41.93
2023-04-18T17:30:15.748Z,41.54
2023-04-18T17:32:45.409Z,42.10
2023-04-18T17:35:16.606Z,42.40
2023-04-18T17:37:43.547Z,42.34
2023-04-18T17:40:11.388Z,42.34
2023-04-18T17:42:38.413Z,42.38
2023-04-18T17:45:07.040Z,42.44
2023-04-18T17:47:35.833Z,42.24
2023-04-18T17:50:06.307Z,42.29
2023-04-18T17:52:33.250Z,42.76
2023-04-18T17:55:03.610Z,42.99
2023-04-18T17:57:32.447Z,42.88
2023-04-18T17:59:59.369Z,43.00
2023-04-18T18:02:27.815Z,43.38
2023-04-18T18:04:55.820Z,43.23
2023-04-18T18:07:22.577Z,43.15
2023-04-18T18:09:49.502Z,43.18
2023-04-18T18:12:16.782Z,44.18
2023-04-18T18:14:43.586Z,44.48
2023-04-18T18:17:10.840Z,44.59
2023-04-18T18:19:38.144Z,44.49
2023-04-18T18:22:05.651Z,44.26
2023-04-18T18:24:32.566Z,44.33
2023-04-18T18:26:59.538Z,44.37
2023-04-18T18:29:26.527Z,44.47
2023-04-18T18:31:53.344Z,44.82
2023-04-18T18:34:21.194Z,44.97
2023-04-18T18:36:48.148Z,45.24
2023-04-18T18:39:15.923Z,45.32
2023-04-18T18:41:43.037Z,45.79
2023-04-18T18:44:11.007Z,45.98
2023-04-18T18:46:37.976Z,46.09
2023-04-18T18:49:04.911Z,46.20
2023-04-18T18:51:32.335Z,46.10
2023-04-18T18:53:59.239Z,45.89
2023-04-18T18:56:26.079Z,46.37
2023-04-18T18:58:53.878Z,46.11
2023-04-18T19:01:20.791Z,45.97
2023-04-18T19:03:47.802Z,45.93
2023-04-18T19:06:15.224Z,45.93
2023-04-18T19:08:42.180Z,45.72
2023-04-18T19:11:09.766Z,45.75
2023-04-18T19:13:36.679Z,46.58
2023-04-18T19:16:03.605Z,46.14
2023-04-18T19:18:30.560Z,46.09
2023-04-18T19:20:57.503Z,46.53
2023-04-18T19:23:24.755Z,46.31
2023-04-18T19:25:51.679Z,46.16
2023-04-18T19:28:18.565Z,46.49
2023-04-18T19:30:45.924Z,46.77
2023-04-18T19:33:13.109Z,46.44
2023-04-18T19:35:40.094Z,46.28
2023-04-18T19:38:07.077Z,46.26
2023-04-18T19:40:33.967Z,46.04
2023-04-18T19:43:00.797Z,46.26
2023-04-18T19:45:27.658Z,46.04
2023-04-18T19:47:54.514Z,46.37
2023-04-18T19:50:21.497Z,46.36
2023-04-18T19:52:48.386Z,46.19
2023-04-18T19:55:15.859Z,46.19
2023-04-18T19:57:43.436Z,46.13
2023-04-18T20:00:12.130Z,46.15
2023-04-18T20:02:44.719Z,46.50
2023-04-18T20:05:12.430Z,46.35
2023-04-18T20:07:40.863Z,46.31
2023-04-18T20:10:08.539Z,46.12
2023-04-18T20:12:35.412Z,46.24
2023-04-18T20:15:02.423Z,46.10
2023-04-18T20:17:33.995Z,46.24
2023-04-18T20:20:00.911Z,46.05
2023-04-18T20:22:27.902Z,45.96
2023-04-18T20:24:56.581Z,45.96
2023-04-18T20:27:23.584Z,46.05
2023-04-18T20:29:50.468Z,45.78
2023-04-18T20:32:17.525Z,45.87
2023-04-18T20:34:46.056Z,45.80
2023-04-18T20:37:15.428Z,45.50
2023-04-18T20:39:42.457Z,45.64
2023-04-18T20:42:13.671Z,46.19
2023-04-18T20:44:46.162Z,46.01
2023-04-18T20:47:15.261Z,45.76
2023-04-18T20:49:42.873Z,46.42
2023-04-18T20:52:09.861Z,45.92
2023-04-18T20:54:36.886Z,46.37
2023-04-18T20:57:03.834Z,46.38
2023-04-18T20:59:30.825Z,47.26
2023-04-18T21:01:57.904Z,47.57
2023-04-18T21:04:25.386Z,47.51
2023-04-18T21:06:52.396Z,47.68
2023-04-18T21:09:19.324Z,47.87
2023-04-18T21:11:46.296Z,48.06
2023-04-18T21:14:13.321Z,48.43
2023-04-18T21:16:40.534Z,48.58
2023-04-18T21:19:08.049Z,49.21
2023-04-18T21:21:35.027Z,48.95
2023-04-18T21:24:02.152Z,48.84
2023-04-18T21:26:29.121Z,48.77
2023-04-18T21:29:00.151Z,49.15
2023-04-18T21:31:28.914Z,49.19
2023-04-18T21:33:56.489Z,49.24
2023-04-18T21:36:24.430Z,49.89
2023-04-18T21:38:51.954Z,49.85
2023-04-18T21:41:19.244Z,49.94
2023-04-18T21:43:46.497Z,50.08
2023-04-18T21:46:14.296Z,50.22
2023-04-18T21:48:41.944Z,50.32
2023-04-18T21:51:09.534Z,50.68
2023-04-18T21:53:37.353Z,50.55
2023-04-18T21:56:04.795Z,50.50
2023-04-18T21:58:31.949Z,50.64
2023-04-18T22:00:58.981Z,50.01
2023-04-18T22:03:26.943Z,50.22
2023-04-18T22:05:57.300Z,50.81
2023-04-18T22:08:27.740Z,50.71
2023-04-18T22:10:55.521Z,50.42
2023-04-18T22:13:22.957Z,50.15
2023-04-18T22:15:50.915Z,49.87
2023-04-18T22:18:18.431Z,50.25
2023-04-18T22:20:46.313Z,50.65
2023-04-18T22:23:13.522Z,50.69
2023-04-18T22:25:40.473Z,51.50
2023-04-18T22:28:07.297Z,51.66
2023-04-18T22:30:34.232Z,51.64
2023-04-18T22:33:01.366Z,51.57
2023-04-18T22:35:28.527Z,51.41
2023-04-18T22:37:55.386Z,51.28
2023-04-18T22:40:22.316Z,51.03
2023-04-18T22:42:51.309Z,50.97
2023-04-18T22:45:18.847Z,50.96
2023-04-18T22:47:46.278Z,50.85
2023-04-18T22:50:13.555Z,50.67
2023-04-18T22:52:40.745Z,50.57
2023-04-18T22:55:08.258Z,50.46
2023-04-18T22:57:35.567Z,50.41
2023-04-18T23:00:04.334Z,50.51
2023-04-18T23:02:31.514Z,50.33
2023-04-18T23:04:59.226Z,50.42
2023-04-18T23:07:26.184Z,50.38
2023-04-18T23:09:53.077Z,50.24
2023-04-18T23:12:20.427Z,50.33
2023-04-18T23:14:47.542Z,50.28
2023-04-18T23:17:15.037Z,50.33
2023-04-18T23:19:41.956Z,50.30
2023-04-18T23:22:08.795Z,50.43
2023-04-18T23:24:35.664Z,50.36
2023-04-18T23:27:02.590Z,50.30
2023-04-18T23:29:29.516Z,50.42
2023-04-18T23:31:56.463Z,50.43
2023-04-18T23:34:23.406Z,50.40
2023-04-18T23:36:50.259Z,50.52
2023-04-18T23:39:17.995Z,50.50
2023-04-18T23:41:45.088Z,50.60
2023-04-18T23:44:12.032Z,50.54
2023-04-18T23:46:38.929Z,50.72
2023-04-18T23:49:05.822Z,50.56
2023-04-18T23:51:32.727Z,50.89
2023-04-18T23:53:59.658Z,51.08
2023-04-18T23:56:26.932Z,51.00
2023-04-18T23:58:53.865Z,50.82
